Time;durP1;ratioP1;P1;durP2;ratioP2;P2;SDS_P1;SDS_P2;PMS_P1;PMS_P2;Temp;Humidity;BMP_temperature;BMP_pressure;BME280_temperature;BME280_humidity;BME280_pressure;Samples;Min_cycle;Max_cycle;Signal;HPM_P1;HPM_P2
2022/08/25 00:02:37;;;;;;;0.43;0.43;;;;;;;22.40;55.84;96655.53;10487037;28;20045;-29
2022/08/25 00:07:37;;;;;;;0.60;0.60;;;;;;;22.36;55.62;96653.91;10484669;28;20029;-30
2022/08/25 00:12:38;;;;;;;0.73;0.73;;;;;;;22.36;55.62;96654.75;10490347;28;20443;-28
2022/08/25 00:17:38;;;;;;;0.73;0.73;;;;;;;22.37;55.71;96651.31;10492950;28;20037;-31
2022/08/25 00:22:39;;;;;;;0.67;0.67;;;;;;;22.36;55.60;96648.78;10491821;28;20032;-29
2022/08/25 00:27:40;;;;;;;0.65;0.50;;;;;;;22.32;55.69;96642.91;10496168;28;20683;-29
2022/08/25 00:32:40;;;;;;;0.47;0.47;;;;;;;22.44;55.86;96647.84;10494772;28;20044;-29
2022/08/25 00:37:41;;;;;;;0.47;0.47;;;;;;;22.60;55.47;96659.47;10494431;28;20439;-29
2022/08/25 00:42:41;;;;;;;0.85;0.60;;;;;;;22.48;55.64;96659.69;10495947;28;20411;-29
2022/08/25 00:47:41;;;;;;;0.30;0.30;;;;;;;22.38;55.63;96654.69;10493604;28;20178;-29
2022/08/25 00:52:46;;;;;;;0.60;0.60;;;;;;;22.34;55.72;96656.50;10493010;28;20301;-30
2022/08/25 00:57:55;;;;;;;0.60;0.60;;;;;;;22.29;55.83;96653.16;10494309;28;20093;-29
2022/08/25 01:02:56;;;;;;;0.50;0.50;;;;;;;22.31;55.61;96659.06;10487266;28;20070;-29
2022/08/25 01:08:01;;;;;;;0.50;0.50;;;;;;;22.30;55.63;96654.03;10491814;28;20035;-29
2022/08/25 01:13:10;;;;;;;0.40;0.40;;;;;;;22.28;55.58;96656.59;10494140;28;20039;-30
2022/08/25 01:18:11;;;;;;;0.40;0.40;;;;;;;22.41;55.95;96658.09;10493418;28;20121;-30
2022/08/25 01:23:11;;;;;;;0.60;0.60;;;;;;;22.57;55.93;96659.50;10489347;28;20064;-29
2022/08/25 01:28:13;;;;;;;0.60;0.60;;;;;;;22.45;55.86;96659.72;10493351;28;20033;-30
2022/08/25 01:33:16;;;;;;;0.60;0.60;;;;;;;22.38;55.67;96660.66;10491165;28;20060;-29
2022/08/25 01:38:19;;;;;;;0.70;0.70;;;;;;;22.35;55.63;96649.66;10492508;28;20028;-29
2022/08/25 01:43:29;;;;;;;0.40;0.40;;;;;;;22.32;55.62;96642.06;10493376;28;20036;-28
2022/08/25 01:48:31;;;;;;;0.40;0.40;;;;;;;22.30;55.91;96649.75;10489869;28;20024;-28
2022/08/25 01:53:32;;;;;;;0.57;0.57;;;;;;;22.27;55.72;96649.81;10489768;28;20040;-30
2022/08/25 01:58:38;;;;;;;0.50;0.50;;;;;;;22.28;55.65;96656.59;10492170;28;20020;-30
2022/08/25 02:03:40;;;;;;;0.45;0.45;;;;;;;22.41;55.95;96658.09;10485583;28;20189;-29
2022/08/25 02:08:42;;;;;;;0.70;0.70;;;;;;;22.60;55.80;96654.38;10489006;28;20032;-30
2022/08/25 02:13:42;;;;;;;0.60;0.60;;;;;;;22.45;55.79;96654.63;10492136;28;20036;-29
2022/08/25 02:18:44;;;;;;;0.50;0.50;;;;;;;22.39;55.55;96664.06;10490569;28;20036;-28
2022/08/25 02:23:45;;;;;;;0.50;0.50;;;;;;;22.36;55.38;96659.84;10487441;28;20075;-29
2022/08/25 02:28:46;;;;;;;0.60;0.60;;;;;;;22.34;55.65;96653.94;10491311;28;20116;-28
2022/08/25 02:33:47;;;;;;;0.70;0.70;;;;;;;22.32;55.69;96642.91;10489523;28;20040;-29
2022/08/25 02:38:48;;;;;;;0.65;0.65;;;;;;;22.30;55.82;96639.53;10488759;28;20029;-29
2022/08/25 02:43:50;;;;;;;0.70;0.70;;;;;;;22.30;55.82;96642.09;10491340;28;20414;-30
2022/08/25 02:48:52;;;;;;;0.60;0.60;;;;;;;22.41;55.96;96640.22;10488948;28;20093;-30
2022/08/25 02:53:52;;;;;;;0.80;0.80;;;;;;;22.60;56.48;96631.41;10487511;28;20058;-29
2022/08/25 02:58:52;;;;;;;0.50;0.50;;;;;;;22.49;55.71;96640.13;10489614;28;20032;-29
2022/08/25 03:03:53;;;;;;;0.80;0.80;;;;;;;22.40;55.58;96630.84;10486607;28;20051;-29
2022/08/25 03:08:54;;;;;;;0.90;0.70;;;;;;;22.33;55.39;96619.06;10486324;28;20300;-29
2022/08/25 03:13:55;;;;;;;0.50;0.50;;;;;;;22.35;55.80;96642.88;10489482;28;20040;-29
2022/08/25 03:18:56;;;;;;;5.22;0.80;;;;;;;22.35;55.55;96645.41;10488747;28;20032;-29
2022/08/25 03:23:58;;;;;;;1.00;0.63;;;;;;;22.32;55.54;96640.34;10485434;28;20043;-29
2022/08/25 03:28:59;;;;;;;0.70;0.70;;;;;;;22.37;55.79;96656.44;10489041;28;20029;-30
2022/08/25 03:34:00;;;;;;;1.58;0.70;;;;;;;22.44;56.05;96655.50;10487139;28;20056;-30
2022/08/25 03:39:00;;;;;;;0.82;0.80;;;;;;;22.62;55.95;96644.97;10487642;28;20103;-28
2022/08/25 03:44:03;;;;;;;0.65;0.65;;;;;;;22.52;55.73;96643.47;10488911;28;20106;-29
2022/08/25 03:49:08;;;;;;;0.57;0.57;;;;;;;22.44;55.74;96637.66;10486418;28;20107;-29
2022/08/25 03:54:09;;;;;;;0.70;0.70;;;;;;;22.39;55.68;96639.38;10485967;28;20388;-30
2022/08/25 03:59:10;;;;;;;0.95;0.73;;;;;;;22.35;55.56;96632.66;10490269;28;20052;-29
2022/08/25 04:04:13;;;;;;;1.05;1.00;;;;;;;22.36;55.75;96629.25;10487944;28;20082;-29
2022/08/25 04:09:14;;;;;;;0.70;0.70;;;;;;;22.39;55.63;96633.47;10487272;28;20060;-30
2022/08/25 04:14:14;;;;;;;0.60;0.60;;;;;;;22.36;55.75;96639.44;10489388;28;20440;-29
2022/08/25 04:19:14;;;;;;;0.70;0.70;;;;;;;22.41;56.11;96630.03;10487695;28;20040;-29
2022/08/25 04:24:15;;;;;;;0.60;0.60;;;;;;;22.62;55.83;96641.56;10483146;28;20064;-30
2022/08/25 04:29:19;;;;;;;0.70;0.40;;;;;;;22.51;55.66;96639.22;10487931;28;20546;-29
2022/08/25 04:34:22;;;;;;;0.75;0.75;;;;;;;22.43;55.56;96643.63;10483052;28;20043;-30
2022/08/25 04:39:22;;;;;;;0.70;0.70;;;;;;;22.41;55.77;96641.94;10486980;28;20120;-29
2022/08/25 04:44:22;;;;;;;0.80;0.80;;;;;;;22.38;55.71;96636.84;10487307;28;20036;-30
2022/08/25 04:49:23;;;;;;;0.90;0.90;;;;;;;22.34;55.58;96630.13;10485033;28;20036;-29
2022/08/25 04:54:24;;;;;;;1.33;0.93;;;;;;;22.39;55.84;96643.66;10483619;28;20046;-29
2022/08/25 04:59:25;;;;;;;1.00;0.90;;;;;;;22.35;55.73;96635.22;10487951;28;20025;-29
2022/08/25 05:04:25;;;;;;;0.80;0.80;;;;;;;22.42;55.98;96634.28;10493299;28;20045;-30
2022/08/25 05:09:26;;;;;;;0.90;0.90;;;;;;;22.61;55.88;96630.53;10491931;28;20028;-30
2022/08/25 05:14:26;;;;;;;0.52;0.52;;;;;;;22.55;55.66;96624.72;10493644;28;20636;-30
2022/08/25 05:19:27;;;;;;;0.70;0.70;;;;;;;22.45;55.67;96618.91;10489814;28;20048;-29
2022/08/25 05:24:28;;;;;;;0.82;0.82;;;;;;;22.40;55.68;96604.53;10489063;28;20041;-30
2022/08/25 05:29:28;;;;;;;0.80;0.80;;;;;;;22.40;55.58;96607.91;10494410;28;20039;-29
2022/08/25 05:34:29;;;;;;;0.80;0.80;;;;;;;22.40;55.68;96614.72;10492456;28;20508;-29
2022/08/25 05:39:32;;;;;;;0.80;0.80;;;;;;;22.41;56.12;96612.16;10489393;28;20043;-29
2022/08/25 05:44:32;;;;;;;0.60;0.60;;;;;;;22.38;55.24;96599.44;10492975;28;20036;-29
2022/08/25 05:49:33;;;;;;;0.77;0.77;;;;;;;22.43;56.07;96591.75;10489530;28;20036;-29
2022/08/25 05:54:33;;;;;;;0.80;0.77;;;;;;;22.58;55.86;96589.75;10489456;28;20048;-30
2022/08/25 05:59:34;;;;;;;0.63;0.63;;;;;;;22.53;55.50;96586.44;10488730;28;20032;-31
2022/08/25 06:04:35;;;;;;;0.52;0.52;;;;;;;22.44;55.42;96584.06;10489048;28;20260;-29
2022/08/25 06:09:39;;;;;;;0.70;0.70;;;;;;;22.40;55.51;96584.94;10489699;28;20035;-30
2022/08/25 06:14:41;;;;;;;0.90;0.90;;;;;;;22.36;55.62;96578.22;10486429;28;20293;-30
2022/08/25 06:19:41;;;;;;;0.70;0.70;;;;;;;22.36;55.60;96568.03;10491039;28;20032;-29
2022/08/25 06:24:41;;;;;;;1.00;0.90;;;;;;;22.33;55.83;96562.94;10486864;28;20044;-29
2022/08/25 06:29:42;;;;;;;0.90;0.90;;;;;;;22.37;55.77;96562.03;10492025;28;20410;-29
2022/08/25 06:34:42;;;;;;;0.95;0.95;;;;;;;22.41;56.11;96562.88;10488910;28;20036;-29
2022/08/25 06:39:43;;;;;;;0.50;0.50;;;;;;;22.60;55.84;96562.50;10487195;28;20036;-29
2022/08/25 06:44:43;;;;;;;0.40;0.40;;;;;;;22.55;55.58;96555.81;10490920;28;20048;-29
2022/08/25 06:49:44;;;;;;;0.57;0.53;;;;;;;22.43;55.45;96554.31;10488280;28;20033;-29
2022/08/25 06:54:44;;;;;;;0.80;0.80;;;;;;;22.41;56.14;96553.50;10487063;28;20293;-28
2022/08/25 06:59:45;;;;;;;1.20;1.07;;;;;;;22.43;55.81;96554.31;10490463;28;20033;-32
2022/08/25 07:04:45;;;;;;;0.90;0.90;;;;;;;22.42;55.82;96551.78;10486875;28;20032;-30
2022/08/25 07:09:45;;;;;;;1.00;1.00;;;;;;;22.43;55.83;96556.88;10487395;28;20033;-29
2022/08/25 07:14:46;;;;;;;1.00;0.90;;;;;;;22.42;55.79;96567.94;10489028;28;20039;-29
2022/08/25 07:19:46;;;;;;;1.73;1.30;;;;;;;22.45;56.62;96562.78;10485666;28;20036;-29
2022/08/25 07:24:46;;;;;;;0.87;0.87;;;;;;;22.62;55.88;96559.91;10483907;28;20033;-29
2022/08/25 07:29:48;;;;;;;0.90;0.70;;;;;;;22.57;55.57;96562.53;10488979;28;20035;-29
2022/08/25 07:40:15;;;;;;;1.20;1.10;;;;;;;22.44;55.49;96565.34;10484858;28;20501;-29
2022/08/25 07:45:16;;;;;;;0.90;0.90;;;;;;;22.46;55.62;96568.72;10488141;28;20042;-30
2022/08/25 07:50:17;;;;;;;0.90;0.80;;;;;;;22.44;56.12;96571.31;10487230;28;20511;-29
2022/08/25 07:55:18;;;;;;;1.13;0.90;;;;;;;22.45;56.08;96573.00;10485790;28;20131;-29
2022/08/25 08:00:19;;;;;;;1.00;1.00;;;;;;;22.43;56.11;96572.19;10487265;28;20037;-30
2022/08/25 08:05:20;;;;;;;1.02;1.00;;;;;;;22.46;56.49;96567.00;10486485;28;20047;-30
2022/08/25 08:10:22;;;;;;;1.02;0.82;;;;;;;22.56;55.78;96555.75;10485445;28;20031;-29
2022/08/25 08:15:22;;;;;;;0.45;0.45;;;;;;;22.61;55.77;96561.63;10486681;28;20468;-30
2022/08/25 08:20:23;;;;;;;0.75;0.73;;;;;;;22.52;55.62;96573.72;10487789;28;20089;-28
2022/08/25 08:25:23;;;;;;;1.07;1.00;;;;;;;22.42;55.51;96562.00;10483195;28;20507;-29
2022/08/25 08:30:23;;;;;;;0.70;0.70;;;;;;;22.43;55.80;96559.44;10487816;28;20283;-29
2022/08/25 08:35:24;;;;;;;1.05;1.00;;;;;;;22.43;55.86;96563.69;10490670;28;20036;-29
2022/08/25 08:40:26;;;;;;;0.90;0.90;;;;;;;22.41;55.69;96560.31;10491957;28;20036;-29
2022/08/25 08:45:37;;;;;;;0.90;0.90;;;;;;;22.41;55.67;96561.13;10495122;28;20129;-29
2022/08/25 08:51:13;;;;;;;0.90;0.90;;;;;;;22.45;56.29;96562.78;10487209;28;20043;-29
2022/08/25 08:56:27;;;;;;;0.70;0.70;;;;;;;22.64;55.67;96551.34;10489330;28;20075;-29
2022/08/25 09:01:34;;;;;;;0.73;0.73;;;;;;;22.55;55.40;96553.25;10494313;28;20604;-30
2022/08/25 09:06:40;;;;;;;0.50;0.50;;;;;;;22.40;55.44;96544.13;10490053;28;20058;-29
2022/08/25 09:11:56;;;;;;;0.55;0.55;;;;;;;22.34;55.47;96539.16;10491485;28;20032;-29
2022/08/25 09:17:06;;;;;;;0.82;0.70;;;;;;;22.37;55.67;96545.88;10488493;28;20024;-30
2022/08/25 09:22:22;;;;;;;0.60;0.60;;;;;;;22.34;55.64;96539.16;10493356;28;20060;-29
2022/08/25 09:28:10;;;;;;;0.60;0.60;;;;;;;22.34;55.58;96535.75;10491867;28;20036;-29
2022/08/25 09:33:14;;;;;;;0.50;0.50;;;;;;;22.31;55.70;96531.53;10361015;28;20132;-31
2022/08/25 09:38:14;;;;;;;0.70;0.70;;;;;;;22.46;55.76;96531.28;10464538;28;20094;-29
2022/08/25 09:43:23;;;;;;;0.40;0.40;;;;;;;22.62;54.96;96529.28;10490535;28;20093;-29
2022/08/25 09:48:36;;;;;;;0.52;0.52;;;;;;;22.47;55.61;96525.31;10487390;28;20036;-29
2022/08/25 09:53:47;;;;;;;0.52;0.50;;;;;;;22.40;55.68;96528.81;10483547;28;20106;-29
2022/08/25 09:58:48;;;;;;;0.50;0.50;;;;;;;22.38;55.64;96514.41;10493322;28;20040;-30
2022/08/25 10:03:57;;;;;;;0.70;0.70;;;;;;;22.37;55.69;96518.69;10488351;28;20039;-29
2022/08/25 10:09:03;;;;;;;0.70;0.70;;;;;;;22.35;55.64;96520.41;10487647;28;20471;-29
2022/08/25 10:14:15;;;;;;;0.60;0.60;;;;;;;22.33;55.61;96521.31;10491560;28;20418;-29
2022/08/25 10:19:21;;;;;;;0.70;0.70;;;;;;;22.36;55.67;96529.75;10489899;28;20348;-28
2022/08/25 10:24:21;;;;;;;0.55;0.55;;;;;;;22.50;55.79;96517.59;10486839;28;20043;-29
2022/08/25 10:30:03;;;;;;;0.50;0.50;;;;;;;22.63;55.11;96513.09;10491849;28;20044;-30
2022/08/25 10:35:16;;;;;;;0.60;0.60;;;;;;;22.47;55.51;96504.09;10481207;28;20036;-30
2022/08/25 10:40:22;;;;;;;0.80;0.80;;;;;;;22.37;55.49;96489.75;10490740;28;20037;-29
2022/08/25 10:45:44;;;;;;;0.80;0.80;;;;;;;22.41;55.67;96494.81;10490434;28;20135;-29
2022/08/25 10:51:09;;;;;;;1.00;0.90;;;;;;;22.37;55.42;96488.06;10484407;28;20055;-29
2022/08/25 10:56:20;;;;;;;0.90;0.90;;;;;;;22.34;55.51;96490.69;10482744;28;20656;-29
2022/08/25 11:01:35;;;;;;;0.60;0.60;;;;;;;22.37;55.88;96485.53;10488401;28;20036;-29
2022/08/25 11:06:46;;;;;;;0.82;0.82;;;;;;;22.39;56.15;96485.50;10486886;28;20064;-29
2022/08/25 11:11:55;;;;;;;0.57;0.57;;;;;;;22.57;55.87;96491.09;10489493;28;20417;-28
2022/08/25 11:17:14;;;;;;;0.40;0.40;;;;;;;22.60;55.24;96480.00;10486027;28;20107;-29
2022/08/25 11:22:28;;;;;;;0.32;0.32;;;;;;;22.47;55.53;96478.56;10489605;28;20036;-29
2022/08/25 11:27:37;;;;;;;0.82;0.70;;;;;;;22.44;55.51;96468.41;10489480;28;20036;-30
2022/08/25 11:32:38;;;;;;;0.77;0.77;;;;;;;22.37;55.64;96472.75;10483711;28;20039;-29
2022/08/25 11:37:57;;;;;;;0.82;0.82;;;;;;;22.41;55.67;96469.31;10484469;28;20582;-28
2022/08/25 11:43:27;;;;;;;0.77;0.77;;;;;;;22.39;55.91;96465.91;10487439;28;20033;-29
2022/08/25 11:48:38;;;;;;;0.98;0.98;;;;;;;22.37;55.61;96457.47;10487132;28;20470;-29
2022/08/25 11:53:40;;;;;;;0.75;0.75;;;;;;;22.46;56.04;96456.44;10481914;28;20110;-29
2022/08/25 11:58:50;;;;;;;0.63;0.63;;;;;;;22.63;55.77;96456.94;10488728;28;20043;-29
2022/08/25 12:03:51;;;;;;;0.50;0.50;;;;;;;22.56;55.53;96453.69;10480075;28;20115;-29
2022/08/25 12:09:03;;;;;;;0.68;0.68;;;;;;;22.47;55.64;96450.50;10485030;28;20078;-29
2022/08/25 12:14:21;;;;;;;0.82;0.73;;;;;;;22.42;55.63;96454.84;10487925;28;20032;-31
2022/08/25 12:19:35;;;;;;;0.60;0.60;;;;;;;22.39;55.54;96450.59;10486595;28;20090;-29
2022/08/25 12:24:35;;;;;;;0.80;0.80;;;;;;;22.39;55.52;96452.34;10480379;28;20483;-29
2022/08/25 12:29:44;;;;;;;1.00;0.90;;;;;;;22.36;55.84;96440.47;10487904;28;20040;-29
2022/08/25 12:35:02;;;;;;;0.57;0.57;;;;;;;22.34;55.57;96434.56;10483825;28;20041;-29
2022/08/25 12:40:05;;;;;;;0.52;0.52;;;;;;;22.46;55.94;96431.78;10486914;28;20048;-29
2022/08/25 12:45:23;;;;;;;0.50;0.50;;;;;;;22.63;55.61;96434.84;10484472;28;20414;-29
2022/08/25 12:50:39;;;;;;;0.45;0.45;;;;;;;22.54;55.58;96435.03;10486001;28;20033;-29
2022/08/25 12:55:53;;;;;;;0.98;0.98;;;;;;;22.43;55.45;96426.75;10483403;28;20047;-29
2022/08/25 13:01:15;;;;;;;0.70;0.70;;;;;;;22.41;55.49;96430.22;10484036;28;20082;-29
2022/08/25 13:06:33;;;;;;;0.70;0.70;;;;;;;22.38;55.62;96423.41;10484441;28;20037;-31
2022/08/25 13:11:48;;;;;;;0.50;0.50;;;;;;;22.34;55.66;96419.25;10481310;28;20036;-29
2022/08/25 13:16:54;;;;;;;0.40;0.40;;;;;;;22.29;55.68;96408.31;10481487;28;20041;-30
2022/08/25 13:21:57;;;;;;;0.73;0.65;;;;;;;22.32;55.82;96410.78;10489771;28;20573;-29
2022/08/25 13:27:04;;;;;;;0.45;0.45;;;;;;;22.53;55.84;96412.94;10489543;28;20082;-29
2022/08/25 13:32:23;;;;;;;0.47;0.47;;;;;;;22.62;55.33;96397.44;10492408;28;20406;-29
2022/08/25 13:37:31;;;;;;;0.70;0.70;;;;;;;22.47;55.67;96391.81;10489138;28;20037;-29
2022/08/25 13:42:31;;;;;;;0.50;0.50;;;;;;;22.45;55.84;96394.41;10493255;28;20039;-29
2022/08/25 13:47:35;;;;;;;0.53;0.53;;;;;;;22.40;55.61;96390.25;10491637;28;20501;-29
2022/08/25 13:52:35;;;;;;;0.40;0.40;;;;;;;22.37;55.67;96386.03;10487028;28;20588;-29
2022/08/25 13:57:43;;;;;;;0.50;0.50;;;;;;;22.36;55.72;96381.81;10492088;28;20101;-29
2022/08/25 14:02:50;;;;;;;0.60;0.60;;;;;;;22.43;56.79;96380.84;10489288;28;20505;-30
2022/08/25 14:07:55;;;;;;;0.65;0.65;;;;;;;22.55;57.17;96372.09;10490090;28;20020;-29
2022/08/25 14:13:10;;;;;;;0.70;0.70;;;;;;;22.67;56.59;96372.69;10487432;28;20041;-29
2022/08/25 14:18:20;;;;;;;0.70;0.70;;;;;;;22.76;55.56;96375.03;10488808;28;20045;-31
2022/08/25 14:23:25;;;;;;;0.95;0.95;;;;;;;22.67;56.55;96370.13;10487027;28;20032;-28
2022/08/25 14:28:28;;;;;;;0.60;0.60;;;;;;;22.70;56.83;96372.59;10491804;28;20472;-29
2022/08/25 14:33:34;;;;;;;1.00;1.00;;;;;;;22.71;57.15;96376.81;10490043;28;20060;-29
2022/08/25 14:38:37;;;;;;;;;;;;;;;22.71;57.28;96371.72;10485207;28;20503;-30
2022/08/25 14:43:38;;;;;;;1.00;0.82;;;;;;;22.56;56.76;96343.16;10490921;28;19923;-28
2022/08/25 14:48:42;;;;;;;0.97;0.90;;;;;;;22.70;57.30;96364.94;10488958;28;20588;-29
2022/08/25 14:53:42;;;;;;;1.13;1.08;;;;;;;22.72;57.32;96362.34;10487600;28;20093;-30
2022/08/25 14:58:43;;;;;;;0.98;0.98;;;;;;;22.79;56.96;96364.72;10490894;28;20033;-29
2022/08/25 15:03:46;;;;;;;0.50;0.50;;;;;;;22.85;55.84;96359.50;10485496;28;20029;-29
2022/08/25 15:14:05;;;;;;;0.95;0.90;;;;;;;22.76;57.20;96341.84;10489335;28;20115;-30
2022/08/25 15:19:08;;;;;;;1.50;1.10;;;;;;;22.76;57.30;96349.50;10485396;28;20031;-29
2022/08/25 15:24:10;;;;;;;1.17;1.10;;;;;;;22.76;57.46;96343.53;10485147;28;20540;-29
2022/08/25 15:29:11;;;;;;;1.45;1.33;;;;;;;22.74;57.39;96341.00;10489194;28;20056;-29
2022/08/25 15:34:11;;;;;;;0.80;0.80;;;;;;;22.64;57.02;96343.81;10485733;28;20461;-29
2022/08/25 15:39:12;;;;;;;1.10;1.00;;;;;;;22.55;56.21;96334.66;10485214;28;20434;-29
2022/08/25 15:44:12;;;;;;;0.63;0.63;;;;;;;22.73;55.92;96333.41;10487983;28;20062;-29
2022/08/25 15:49:12;;;;;;;0.40;0.40;;;;;;;22.75;55.55;96332.47;10485915;28;20286;-30
2022/08/25 15:54:13;;;;;;;0.70;0.70;;;;;;;22.58;56.28;96323.53;10485414;28;20067;-29
2022/08/25 15:59:13;;;;;;;0.60;0.60;;;;;;;22.52;56.10;96328.78;10489160;28;20085;-29
2022/08/25 16:04:13;;;;;;;0.40;0.40;;;;;;;22.47;55.88;96326.31;10483063;28;20359;-29
2022/08/25 16:09:14;;;;;;;0.57;0.57;;;;;;;22.46;56.01;96324.66;10485503;28;20287;-29
2022/08/25 16:14:15;;;;;;;0.80;0.80;;;;;;;22.45;55.96;96333.19;10488111;28;20056;-30
2022/08/25 16:19:15;;;;;;;0.60;0.60;;;;;;;22.42;55.92;96325.59;10485279;28;20082;-29
2022/08/25 16:24:15;;;;;;;0.67;0.67;;;;;;;22.43;55.95;96323.88;10483782;28;20044;-30
2022/08/25 16:29:17;;;;;;;0.50;0.50;;;;;;;22.63;56.15;96320.00;10487720;28;20040;-29
2022/08/25 16:34:18;;;;;;;0.30;0.30;;;;;;;22.71;55.44;96315.56;10483834;28;20037;-28
2022/08/25 16:39:20;;;;;;;0.43;0.43;;;;;;;22.55;56.14;96316.78;10487057;28;20422;-30
2022/08/25 16:44:21;;;;;;;0.70;0.70;;;;;;;22.47;56.07;96316.13;10486881;28;20060;-30
2022/08/25 16:49:22;;;;;;;0.57;0.57;;;;;;;22.43;55.90;96314.53;10485685;28;20025;-30
2022/08/25 16:59:41;;;;;;;0.40;0.40;;;;;;;22.40;55.99;96314.53;10492793;28;20033;-29
2022/08/25 17:04:41;;;;;;;0.50;0.50;;;;;;;22.39;55.91;96310.31;10493133;28;20063;-29
2022/08/25 17:09:42;;;;;;;0.50;0.50;;;;;;;22.39;56.19;96315.41;10491969;28;20290;-29
2022/08/25 17:14:42;;;;;;;0.50;0.50;;;;;;;22.59;56.36;96310.75;10493966;28;20094;-29
2022/08/25 17:19:42;;;;;;;0.40;0.40;;;;;;;22.69;55.76;96314.78;10490777;28;20041;-29
2022/08/25 17:24:44;;;;;;;0.43;0.43;;;;;;;22.52;56.25;96316.00;10489811;28;20037;-29
2022/08/25 17:29:46;;;;;;;0.57;0.52;;;;;;;22.46;55.83;96324.66;10493960;28;20626;-29
2022/08/25 17:34:46;;;;;;;0.57;0.57;;;;;;;22.42;55.88;96323.06;10491089;28;20040;-29
2022/08/25 17:39:47;;;;;;;0.40;0.40;;;;;;;22.41;55.85;96323.88;10490131;28;20530;-29
2022/08/25 17:44:47;;;;;;;0.50;0.50;;;;;;;22.39;55.92;96325.63;10492823;28;20040;-29
2022/08/25 17:49:48;;;;;;;0.52;0.52;;;;;;;22.37;55.96;96324.81;10490682;28;20029;-29
2022/08/25 17:54:49;;;;;;;0.50;0.50;;;;;;;22.37;56.14;96327.38;10489733;28;20036;-29
2022/08/25 17:59:49;;;;;;;0.60;0.60;;;;;;;22.59;56.33;96336.28;10493411;28;20029;-29
2022/08/25 18:04:50;;;;;;;0.30;0.30;;;;;;;22.70;55.54;96330.91;10491510;28;20036;-29
2022/08/25 18:09:50;;;;;;;0.47;0.47;;;;;;;22.50;56.11;96331.34;10491011;28;20040;-30
2022/08/25 18:14:50;;;;;;;0.95;0.65;;;;;;;22.52;56.00;96332.16;10493217;28;20032;-29
2022/08/25 18:19:51;;;;;;;0.60;0.60;;;;;;;22.48;55.89;96343.31;10492125;28;20097;-29
2022/08/25 18:24:51;;;;;;;0.93;0.90;;;;;;;22.47;56.27;96349.28;10486498;28;20128;-30
2022/08/25 18:29:51;;;;;;;0.50;0.50;;;;;;;22.48;55.98;96358.59;10491814;28;20029;-29
2022/08/25 18:34:52;;;;;;;0.60;0.60;;;;;;;22.46;55.95;96355.25;10489976;28;20502;-29
2022/08/25 18:45:11;;;;;;;0.52;0.52;;;;;;;22.66;56.36;96368.41;10487901;28;20050;-29
2022/08/25 18:50:12;;;;;;;0.60;0.50;;;;;;;22.73;55.75;96376.78;10490244;28;20035;-30
2022/08/25 18:55:12;;;;;;;0.38;0.38;;;;;;;22.62;56.12;96371.91;10485559;28;20062;-30
2022/08/25 19:00:15;;;;;;;0.85;0.85;;;;;;;22.54;56.25;96373.78;10491006;28;20037;-30
2022/08/25 19:05:19;;;;;;;0.60;0.60;;;;;;;22.52;56.03;96379.78;10487235;28;20038;-29
2022/08/25 19:10:20;;;;;;;0.68;0.68;;;;;;;22.50;56.13;96376.44;10487716;28;20490;-29
2022/08/25 19:15:21;;;;;;;0.77;0.77;;;;;;;22.49;56.26;96384.97;10489023;28;20028;-30
2022/08/25 19:20:23;;;;;;;0.50;0.50;;;;;;;22.49;56.10;96393.44;10485817;28;20043;-30
2022/08/25 19:25:24;;;;;;;0.73;0.73;;;;;;;22.49;55.93;96401.09;10484988;28;20415;-29
2022/08/25 19:30:28;;;;;;;0.40;0.40;;;;;;;22.68;56.32;96399.00;10485560;28;20095;-30
2022/08/25 19:35:44;;;;;;;0.47;0.47;;;;;;;22.74;55.81;96401.44;10488824;28;20487;-29
2022/08/25 19:40:46;;;;;;;0.60;0.60;;;;;;;22.60;56.26;96401.75;10481424;28;20119;-29
2022/08/25 19:45:47;;;;;;;0.40;0.40;;;;;;;22.56;56.13;96399.28;10486958;28;20032;-29
2022/08/25 19:50:48;;;;;;;0.70;0.70;;;;;;;22.53;55.89;96399.34;10488665;28;20532;-29
2022/08/25 19:55:48;;;;;;;0.70;0.70;;;;;;;22.46;55.95;96396.06;10485991;28;20043;-28
2022/08/25 20:00:48;;;;;;;0.60;0.60;;;;;;;22.49;56.08;96396.00;10489181;28;20037;-30
2022/08/25 20:05:50;;;;;;;0.70;0.70;;;;;;;22.51;56.14;96404.50;10483029;28;20085;-29
2022/08/25 20:10:50;;;;;;;0.80;0.80;;;;;;;22.53;56.89;96407.84;10486763;28;20040;-29
2022/08/25 20:15:51;;;;;;;0.40;0.40;;;;;;;22.71;56.20;96420.22;10484445;28;20040;-30
2022/08/25 20:20:51;;;;;;;0.40;0.40;;;;;;;22.75;55.97;96416.69;10488511;28;20052;-29
2022/08/25 20:25:52;;;;;;;0.50;0.50;;;;;;;22.57;56.12;96414.53;10483723;28;20036;-30
2022/08/25 20:30:52;;;;;;;0.50;0.50;;;;;;;22.56;56.13;96417.97;10491888;28;20032;-29
2022/08/25 20:35:53;;;;;;;0.50;0.50;;;;;;;22.52;56.11;96418.94;10494694;28;20062;-29
2022/08/25 20:40:53;;;;;;;0.60;0.60;;;;;;;22.52;56.08;96418.94;10495146;28;20077;-29
2022/08/25 20:46:01;;;;;;;0.77;0.77;;;;;;;22.50;55.80;96418.09;10495847;28;20081;-30
2022/08/25 20:51:06;;;;;;;0.70;0.70;;;;;;;22.49;56.22;96416.41;10490294;28;20373;-30
2022/08/25 20:56:13;;;;;;;0.68;0.60;;;;;;;22.51;56.64;96429.16;10491687;28;20105;-29
2022/08/25 21:01:20;;;;;;;0.50;0.50;;;;;;;22.71;56.66;96437.22;10495239;28;20036;-29
2022/08/25 21:06:20;;;;;;;0.40;0.40;;;;;;;22.76;56.07;96426.06;10489988;28;20116;-30
2022/08/25 21:11:23;;;;;;;0.40;0.40;;;;;;;22.61;56.12;96428.94;10492529;28;20039;-30
2022/08/25 21:16:24;;;;;;;0.50;0.50;;;;;;;22.55;56.15;96428.22;10492131;28;20509;-29
2022/08/25 21:21:24;;;;;;;0.60;0.60;;;;;;;22.51;56.17;96424.03;10493389;28;20028;-30
2022/08/25 21:26:28;;;;;;;0.60;0.60;;;;;;;22.50;55.68;96427.47;10489634;28;20499;-29
2022/08/25 21:31:29;;;;;;;0.50;0.50;;;;;;;22.49;55.96;96426.63;10489899;28;20044;-30
2022/08/25 21:36:31;;;;;;;0.50;0.50;;;;;;;22.49;56.11;96431.72;10493668;28;20071;-29
2022/08/25 21:41:33;;;;;;;0.70;0.70;;;;;;;22.50;56.58;96430.84;10488755;28;20049;-29
2022/08/25 21:46:34;;;;;;;0.47;0.47;;;;;;;22.70;56.41;96433.84;10489326;28;20593;-29
2022/08/25 21:51:41;;;;;;;0.52;0.52;;;;;;;22.74;56.07;96432.06;10492022;28;20082;-30
2022/08/25 21:56:43;;;;;;;0.50;0.50;;;;;;;22.60;56.13;96429.81;10489973;28;20082;-29
2022/08/25 22:01:44;;;;;;;0.75;0.75;;;;;;;22.55;55.77;96426.50;10489319;28;20025;-30
2022/08/25 22:06:45;;;;;;;0.60;0.60;;;;;;;22.51;55.90;96430.00;10492028;28;20047;-28
2022/08/25 22:11:46;;;;;;;0.70;0.70;;;;;;;22.48;56.15;96430.03;10490245;28;20036;-29
2022/08/25 22:16:46;;;;;;;0.55;0.55;;;;;;;22.48;55.83;96432.59;10489192;28;20581;-29
2022/08/25 22:21:46;;;;;;;0.70;0.70;;;;;;;22.47;55.98;96430.09;10492266;28;20675;-29
2022/08/25 22:26:47;;;;;;;0.53;0.53;;;;;;;22.48;56.63;96426.66;10487368;28;20490;-28
2022/08/25 22:31:48;;;;;;;0.50;0.50;;;;;;;22.69;56.46;96421.97;10488007;28;20509;-29
2022/08/25 22:36:48;;;;;;;0.40;0.40;;;;;;;22.74;55.50;96414.22;10491174;28;20032;-28
2022/08/25 22:41:48;;;;;;;0.40;0.40;;;;;;;22.62;56.15;96417.00;10487435;28;20788;-29
2022/08/25 22:46:49;;;;;;;0.60;0.60;;;;;;;22.50;56.19;96410.44;10487372;28;20040;-31
2022/08/25 22:51:49;;;;;;;1.10;0.77;;;;;;;22.52;55.92;96410.41;10491056;28;20037;-29
2022/08/25 22:56:50;;;;;;;0.60;0.60;;;;;;;22.50;55.94;96412.97;10487880;28;20036;-29
2022/08/25 23:01:53;;;;;;;0.80;0.80;;;;;;;22.51;55.94;96412.16;10488468;28;20373;-29
2022/08/25 23:06:53;;;;;;;0.80;0.80;;;;;;;22.50;56.75;96407.88;10489950;28;20754;-28
2022/08/25 23:11:54;;;;;;;0.80;0.80;;;;;;;22.51;56.68;96404.50;10487831;28;20101;-30
2022/08/25 23:16:54;;;;;;;0.40;0.40;;;;;;;22.70;56.40;96390.47;10487128;28;20040;-29
2022/08/25 23:22:11;;;;;;;0.40;0.40;;;;;;;22.71;55.98;96384.47;10489881;28;20089;-29
2022/08/25 23:27:12;;;;;;;;;;;;;;;22.62;56.19;96394.88;10489483;28;20024;-29
2022/08/25 23:32:15;;;;;;;0.52;0.52;;;;;;;22.56;56.12;96389.91;10482611;28;19912;-29
2022/08/25 23:37:15;;;;;;;0.70;0.70;;;;;;;22.56;56.35;96383.97;10487588;28;20037;-30
2022/08/25 23:42:18;;;;;;;0.70;0.70;;;;;;;22.56;56.16;96378.88;10486775;28;20561;-29
2022/08/25 23:47:18;;;;;;;0.70;0.70;;;;;;;22.55;56.68;96380.56;10486561;28;20295;-29
2022/08/25 23:52:19;;;;;;;1.00;0.90;;;;;;;22.53;56.61;96384.88;10486544;28;20036;-31
2022/08/25 23:57:19;;;;;;;0.60;0.60;;;;;;;22.55;56.75;96380.56;10487658;28;20036;-29
